Historique des mesures à Cassis (13260), France
Quotidien Résumé Mars 2, 2017 Unités:  US    Métrique   Métrique/US
« Précédent (Jour)
Suivant (Jour) »
Quotidien Hebdomadaire Mensuel Annuel Période au choix
  Maximum: Minimum: Moyenne:
Température: 32 °F 49.6 °F 55 °F
Point de rosée: 32 °F 44.6 °F 46.6 °F
Humidité: Humidity % 62 % 70 %
Vitesse du vent: WindSpeedKMH mph 0.0 mph 5.2 mph
Rafales: WindSpeedGustKMH mph - -
Vent:- - South
Pression: 0 in 29.9 in -
Précipitations: 0 in    
Historical Graphs
 
 
Mesures pour : Mars 2, 2017
Heure Temperature Point de rosée Pression Vent Vitesse du vent Rafales Humidité Pluie (par heure) Conditions
32 °F 32 °F 0 in Calm     Humidity % 0 in SoftwareType W/m2
00:11 55.2 °F 47.5 °F 30 in Calm     75 % 0 in open2300-1.11 W/m2
01:10 54.1 °F 46.8 °F 30 in NNW 7.9 mph 7.9 mph 76 % 0 in open2300-1.11 W/m2
02:11 52.2 °F 45.9 °F 30 in WNW 15.1 mph 15.1 mph 79 % 0 in open2300-1.11 W/m2
03:10 51.6 °F 45.7 °F 30 in North 3.5 mph 3.5 mph 80 % 0 in open2300-1.11 W/m2
04:11 50.7 °F 45.3 °F 30 in North 4.7 mph 13.4 mph 82 % 0 in open2300-1.11 W/m2
05:10 50.5 °F 45.5 °F 30 in NW 3.2 mph 5.0 mph 83 % 0 in open2300-1.11 W/m2
06:11 49.6 °F 44.6 °F 30 in North 3.2 mph 7.2 mph 83 % 0 in open2300-1.11 W/m2
07:10 50.4 °F 45 °F 30 in Calm   7.6 mph 82 % 0 in open2300-1.11 W/m2
08:11 51.1 °F 45.1 °F 30 in Calm     80 % 0 in open2300-1.11 W/m2
09:10 55 °F 46.9 °F 30 in West 4.0 mph 14.8 mph 74 % 0 in open2300-1.11 W/m2
10:11 57 °F 46.9 °F 30 in Calm   7.9 mph 69 % 0 in open2300-1.11 W/m2
11:10 59.4 °F 47.7 °F 30 in WNW 16.3 mph 16.3 mph 65 % 0 in open2300-1.11 W/m2
12:11 61.5 °F 48.4 °F 30 in NNE 6.1 mph 7.9 mph 62 % 0 in open2300-1.11 W/m2
13:10 62.1 °F 48.9 °F 30 in WNW 10.1 mph 10.1 mph 62 % 0 in open2300-1.11 W/m2
14:11 61.7 °F 48.9 °F 29.9 in North 3.2 mph 21.2 mph 63 % 0 in open2300-1.11 W/m2
15:10 61.5 °F 50.2 °F 29.9 in West 5.5 mph 9.0 mph 66 % 0 in open2300-1.11 W/m2
16:11 61.3 °F 49.5 °F 29.9 in NW 19.1 mph 19.1 mph 65 % 0 in open2300-1.11 W/m2
17:10 61 °F 48.7 °F 29.9 in North 9.3 mph 16.9 mph 64 % 0 in open2300-1.11 W/m2
18:11 59.2 °F 47.8 °F 29.9 in NW 6.4 mph 6.4 mph 66 % 0 in open2300-1.11 W/m2
19:10 57.4 °F 48 °F 29.9 in WNW 11.6 mph 14.3 mph 71 % 0 in open2300-1.11 W/m2
20:11 56.1 °F 47.5 °F 30 in Calm     73 % 0 in open2300-1.11 W/m2
21:10 55.9 °F 47.5 °F 29.9 in Calm     73 % 0 in open2300-1.11 W/m2
22:11 54.7 °F 46.6 °F 29.9 in Calm     74 % 0 in open2300-1.11 W/m2
23:10 54.7 °F 46.9 °F 29.9 in Calm     75 % 0 in open2300-1.11 W/m2
Observations météo à CASSIS
WU-History script by Weather Underground - 1 mb